sensor_id;sensor_type;location;lat;lon;timestamp;P1;durP1;ratioP1;P2;durP2;ratioP2
16766;SDS011;8501;49.926;8.404;2023-09-08T00:00:55;10.60;;;9.35;;
16766;SDS011;8501;49.926;8.404;2023-09-08T00:03:21;15.75;;;9.98;;
16766;SDS011;8501;49.926;8.404;2023-09-08T00:05:46;13.90;;;9.90;;
16766;SDS011;8501;49.926;8.404;2023-09-08T00:08:12;12.75;;;9.20;;
16766;SDS011;8501;49.926;8.404;2023-09-08T00:10:37;10.35;;;8.90;;
16766;SDS011;8501;49.926;8.404;2023-09-08T00:13:03;10.15;;;9.02;;
16766;SDS011;8501;49.926;8.404;2023-09-08T00:15:28;11.45;;;8.98;;
16766;SDS011;8501;49.926;8.404;2023-09-08T00:17:54;12.38;;;9.35;;
16766;SDS011;8501;49.926;8.404;2023-09-08T00:20:21;13.27;;;9.48;;
16766;SDS011;8501;49.926;8.404;2023-09-08T00:22:47;14.88;;;10.00;;
16766;SDS011;8501;49.926;8.404;2023-09-08T00:25:13;13.55;;;9.32;;
16766;SDS011;8501;49.926;8.404;2023-09-08T00:27:38;12.27;;;9.55;;
16766;SDS011;8501;49.926;8.404;2023-09-08T00:30:04;14.80;;;10.23;;
16766;SDS011;8501;49.926;8.404;2023-09-08T00:32:30;16.52;;;9.95;;
16766;SDS011;8501;49.926;8.404;2023-09-08T00:34:56;12.07;;;9.63;;
16766;SDS011;8501;49.926;8.404;2023-09-08T00:37:21;12.18;;;9.93;;
16766;SDS011;8501;49.926;8.404;2023-09-08T00:39:47;15.32;;;9.82;;
16766;SDS011;8501;49.926;8.404;2023-09-08T00:42:12;12.07;;;8.77;;
16766;SDS011;8501;49.926;8.404;2023-09-08T00:44:38;12.10;;;9.57;;
16766;SDS011;8501;49.926;8.404;2023-09-08T00:47:04;18.88;;;10.07;;
16766;SDS011;8501;49.926;8.404;2023-09-08T00:49:29;11.55;;;9.18;;
16766;SDS011;8501;49.926;8.404;2023-09-08T00:51:55;11.02;;;8.98;;
16766;SDS011;8501;49.926;8.404;2023-09-08T00:54:21;12.07;;;9.02;;
16766;SDS011;8501;49.926;8.404;2023-09-08T00:56:46;14.38;;;9.68;;
16766;SDS011;8501;49.926;8.404;2023-09-08T00:59:14;10.98;;;9.00;;
16766;SDS011;8501;49.926;8.404;2023-09-08T01:01:40;12.48;;;9.25;;
16766;SDS011;8501;49.926;8.404;2023-09-08T01:04:05;11.52;;;9.68;;
16766;SDS011;8501;49.926;8.404;2023-09-08T01:06:31;13.82;;;9.48;;
16766;SDS011;8501;49.926;8.404;2023-09-08T01:08:57;11.60;;;9.80;;
16766;SDS011;8501;49.926;8.404;2023-09-08T01:11:24;12.82;;;9.80;;
16766;SDS011;8501;49.926;8.404;2023-09-08T01:13:50;11.48;;;9.38;;
16766;SDS011;8501;49.926;8.404;2023-09-08T01:16:16;11.80;;;9.20;;
16766;SDS011;8501;49.926;8.404;2023-09-08T01:18:41;13.40;;;9.18;;
16766;SDS011;8501;49.926;8.404;2023-09-08T01:26:16;11.32;;;8.40;;
16766;SDS011;8501;49.926;8.404;2023-09-08T01:28:44;10.43;;;8.32;;
16766;SDS011;8501;49.926;8.404;2023-09-08T01:31:14;9.85;;;8.77;;
16766;SDS011;8501;49.926;8.404;2023-09-08T01:33:40;14.43;;;9.07;;
16766;SDS011;8501;49.926;8.404;2023-09-08T01:36:07;9.57;;;8.55;;
16766;SDS011;8501;49.926;8.404;2023-09-08T01:38:33;14.43;;;8.95;;
16766;SDS011;8501;49.926;8.404;2023-09-08T01:40:58;10.32;;;8.75;;
16766;SDS011;8501;49.926;8.404;2023-09-08T01:43:25;11.32;;;8.93;;
16766;SDS011;8501;49.926;8.404;2023-09-08T01:45:50;11.18;;;8.63;;
16766;SDS011;8501;49.926;8.404;2023-09-08T01:48:16;11.13;;;8.20;;
16766;SDS011;8501;49.926;8.404;2023-09-08T01:50:41;9.13;;;8.13;;
16766;SDS011;8501;49.926;8.404;2023-09-08T01:53:07;11.93;;;8.80;;
16766;SDS011;8501;49.926;8.404;2023-09-08T01:55:32;11.52;;;8.40;;
16766;SDS011;8501;49.926;8.404;2023-09-08T01:57:58;12.18;;;7.75;;
16766;SDS011;8501;49.926;8.404;2023-09-08T02:00:23;15.38;;;9.40;;
16766;SDS011;8501;49.926;8.404;2023-09-08T02:02:49;11.07;;;8.90;;
16766;SDS011;8501;49.926;8.404;2023-09-08T02:05:14;11.38;;;8.85;;
16766;SDS011;8501;49.926;8.404;2023-09-08T02:07:40;11.65;;;8.50;;
16766;SDS011;8501;49.926;8.404;2023-09-08T02:10:06;12.77;;;8.55;;
16766;SDS011;8501;49.926;8.404;2023-09-08T02:12:31;11.30;;;8.00;;
16766;SDS011;8501;49.926;8.404;2023-09-08T02:14:57;10.88;;;8.07;;
16766;SDS011;8501;49.926;8.404;2023-09-08T02:17:22;9.73;;;7.55;;
16766;SDS011;8501;49.926;8.404;2023-09-08T02:19:48;9.15;;;7.70;;
16766;SDS011;8501;49.926;8.404;2023-09-08T02:22:14;9.88;;;7.88;;
16766;SDS011;8501;49.926;8.404;2023-09-08T02:24:39;11.02;;;8.23;;
16766;SDS011;8501;49.926;8.404;2023-09-08T02:27:04;12.55;;;8.07;;
16766;SDS011;8501;49.926;8.404;2023-09-08T02:29:30;10.55;;;8.13;;
16766;SDS011;8501;49.926;8.404;2023-09-08T02:31:56;10.52;;;7.88;;
16766;SDS011;8501;49.926;8.404;2023-09-08T02:34:22;9.20;;;7.43;;
16766;SDS011;8501;49.926;8.404;2023-09-08T02:36:47;10.25;;;7.40;;
16766;SDS011;8501;49.926;8.404;2023-09-08T02:39:15;10.88;;;8.65;;
16766;SDS011;8501;49.926;8.404;2023-09-08T02:41:41;11.07;;;8.10;;
16766;SDS011;8501;49.926;8.404;2023-09-08T02:44:06;10.05;;;8.00;;
16766;SDS011;8501;49.926;8.404;2023-09-08T02:46:32;11.63;;;8.93;;
16766;SDS011;8501;49.926;8.404;2023-09-08T02:48:57;11.77;;;8.57;;
16766;SDS011;8501;49.926;8.404;2023-09-08T02:51:23;11.18;;;8.45;;
16766;SDS011;8501;49.926;8.404;2023-09-08T02:53:48;10.32;;;8.07;;
16766;SDS011;8501;49.926;8.404;2023-09-08T02:56:14;10.15;;;8.38;;
16766;SDS011;8501;49.926;8.404;2023-09-08T02:58:39;9.27;;;7.85;;
16766;SDS011;8501;49.926;8.404;2023-09-08T03:03:41;10.10;;;7.85;;
16766;SDS011;8501;49.926;8.404;2023-09-08T03:06:08;10.63;;;7.80;;
16766;SDS011;8501;49.926;8.404;2023-09-08T03:08:34;11.07;;;7.97;;
16766;SDS011;8501;49.926;8.404;2023-09-08T03:11:01;10.68;;;8.18;;
16766;SDS011;8501;49.926;8.404;2023-09-08T03:13:28;13.07;;;8.85;;
16766;SDS011;8501;49.926;8.404;2023-09-08T03:15:54;12.27;;;8.18;;
16766;SDS011;8501;49.926;8.404;2023-09-08T03:18:20;11.05;;;8.10;;
16766;SDS011;8501;49.926;8.404;2023-09-08T03:20:49;9.57;;;7.70;;
16766;SDS011;8501;49.926;8.404;2023-09-08T03:23:15;11.57;;;7.95;;
16766;SDS011;8501;49.926;8.404;2023-09-08T03:25:42;10.40;;;7.85;;
16766;SDS011;8501;49.926;8.404;2023-09-08T03:28:07;10.32;;;7.68;;
16766;SDS011;8501;49.926;8.404;2023-09-08T03:30:33;8.95;;;7.65;;
16766;SDS011;8501;49.926;8.404;2023-09-08T03:32:58;10.57;;;7.88;;
16766;SDS011;8501;49.926;8.404;2023-09-08T03:35:24;10.90;;;7.90;;
16766;SDS011;8501;49.926;8.404;2023-09-08T03:37:49;10.68;;;7.82;;
16766;SDS011;8501;49.926;8.404;2023-09-08T03:40:15;10.57;;;7.70;;
16766;SDS011;8501;49.926;8.404;2023-09-08T03:42:40;9.55;;;7.90;;
16766;SDS011;8501;49.926;8.404;2023-09-08T03:45:09;9.57;;;8.10;;
16766;SDS011;8501;49.926;8.404;2023-09-08T03:47:34;9.63;;;7.93;;
16766;SDS011;8501;49.926;8.404;2023-09-08T03:50:00;11.00;;;8.02;;
16766;SDS011;8501;49.926;8.404;2023-09-08T03:52:25;10.82;;;7.95;;
16766;SDS011;8501;49.926;8.404;2023-09-08T03:54:51;10.80;;;7.88;;
16766;SDS011;8501;49.926;8.404;2023-09-08T03:57:17;11.05;;;7.65;;
16766;SDS011;8501;49.926;8.404;2023-09-08T03:59:42;10.93;;;8.00;;
16766;SDS011;8501;49.926;8.404;2023-09-08T04:02:08;9.57;;;7.82;;
16766;SDS011;8501;49.926;8.404;2023-09-08T04:04:33;10.13;;;7.57;;
16766;SDS011;8501;49.926;8.404;2023-09-08T04:06:59;10.63;;;8.32;;
16766;SDS011;8501;49.926;8.404;2023-09-08T04:09:24;12.70;;;7.88;;
16766;SDS011;8501;49.926;8.404;2023-09-08T04:11:50;9.65;;;7.47;;
16766;SDS011;8501;49.926;8.404;2023-09-08T04:14:16;12.38;;;8.13;;
16766;SDS011;8501;49.926;8.404;2023-09-08T04:16:42;11.40;;;8.30;;
16766;SDS011;8501;49.926;8.404;2023-09-08T04:19:07;10.63;;;8.00;;
16766;SDS011;8501;49.926;8.404;2023-09-08T04:21:33;11.15;;;7.72;;
16766;SDS011;8501;49.926;8.404;2023-09-08T04:23:58;9.68;;;8.13;;
16766;SDS011;8501;49.926;8.404;2023-09-08T04:26:24;10.70;;;7.85;;
16766;SDS011;8501;49.926;8.404;2023-09-08T04:28:50;12.40;;;8.30;;
16766;SDS011;8501;49.926;8.404;2023-09-08T04:31:15;9.75;;;7.78;;
16766;SDS011;8501;49.926;8.404;2023-09-08T04:33:43;9.43;;;7.82;;
16766;SDS011;8501;49.926;8.404;2023-09-08T04:36:08;10.95;;;8.18;;
16766;SDS011;8501;49.926;8.404;2023-09-08T04:38:35;12.35;;;8.75;;
16766;SDS011;8501;49.926;8.404;2023-09-08T04:41:01;11.38;;;8.50;;
16766;SDS011;8501;49.926;8.404;2023-09-08T04:43:27;12.88;;;8.68;;
16766;SDS011;8501;49.926;8.404;2023-09-08T04:45:52;11.10;;;8.13;;
16766;SDS011;8501;49.926;8.404;2023-09-08T04:48:18;13.05;;;8.73;;
16766;SDS011;8501;49.926;8.404;2023-09-08T04:50:43;12.02;;;9.10;;
16766;SDS011;8501;49.926;8.404;2023-09-08T04:53:09;12.90;;;9.70;;
16766;SDS011;8501;49.926;8.404;2023-09-08T04:55:34;15.80;;;8.77;;
16766;SDS011;8501;49.926;8.404;2023-09-08T04:58:00;13.02;;;8.85;;
16766;SDS011;8501;49.926;8.404;2023-09-08T05:00:25;13.18;;;8.57;;
16766;SDS011;8501;49.926;8.404;2023-09-08T05:02:51;13.32;;;9.20;;
16766;SDS011;8501;49.926;8.404;2023-09-08T05:05:16;11.90;;;8.55;;
16766;SDS011;8501;49.926;8.404;2023-09-08T05:07:42;13.20;;;8.65;;
16766;SDS011;8501;49.926;8.404;2023-09-08T05:10:07;10.80;;;8.10;;
16766;SDS011;8501;49.926;8.404;2023-09-08T05:12:34;9.60;;;8.23;;
16766;SDS011;8501;49.926;8.404;2023-09-08T05:14:59;14.20;;;8.82;;
16766;SDS011;8501;49.926;8.404;2023-09-08T05:17:31;13.25;;;8.50;;
16766;SDS011;8501;49.926;8.404;2023-09-08T05:19:57;11.10;;;8.55;;
16766;SDS011;8501;49.926;8.404;2023-09-08T05:22:22;13.23;;;9.90;;
16766;SDS011;8501;49.926;8.404;2023-09-08T05:24:48;16.52;;;9.52;;
16766;SDS011;8501;49.926;8.404;2023-09-08T05:27:13;12.75;;;9.23;;
16766;SDS011;8501;49.926;8.404;2023-09-08T05:29:39;13.20;;;9.13;;
16766;SDS011;8501;49.926;8.404;2023-09-08T05:32:04;11.55;;;8.70;;
16766;SDS011;8501;49.926;8.404;2023-09-08T05:34:30;12.57;;;8.68;;
16766;SDS011;8501;49.926;8.404;2023-09-08T05:36:55;12.38;;;8.63;;
16766;SDS011;8501;49.926;8.404;2023-09-08T05:39:21;12.35;;;8.95;;
16766;SDS011;8501;49.926;8.404;2023-09-08T05:41:46;10.85;;;8.45;;
16766;SDS011;8501;49.926;8.404;2023-09-08T05:44:12;11.68;;;8.75;;
16766;SDS011;8501;49.926;8.404;2023-09-08T05:46:37;10.82;;;8.38;;
16766;SDS011;8501;49.926;8.404;2023-09-08T05:49:03;13.15;;;8.38;;
16766;SDS011;8501;49.926;8.404;2023-09-08T05:51:29;11.75;;;8.57;;
16766;SDS011;8501;49.926;8.404;2023-09-08T05:53:55;13.10;;;9.10;;
16766;SDS011;8501;49.926;8.404;2023-09-08T05:56:20;12.13;;;8.52;;
16766;SDS011;8501;49.926;8.404;2023-09-08T05:58:49;10.93;;;8.60;;
16766;SDS011;8501;49.926;8.404;2023-09-08T06:01:15;10.20;;;8.15;;
16766;SDS011;8501;49.926;8.404;2023-09-08T06:03:41;11.38;;;8.20;;
16766;SDS011;8501;49.926;8.404;2023-09-08T06:06:06;10.50;;;9.02;;
16766;SDS011;8501;49.926;8.404;2023-09-08T06:08:32;9.50;;;8.27;;
16766;SDS011;8501;49.926;8.404;2023-09-08T06:10:57;11.90;;;8.73;;
16766;SDS011;8501;49.926;8.404;2023-09-08T06:13:23;12.38;;;9.25;;
16766;SDS011;8501;49.926;8.404;2023-09-08T06:15:48;12.02;;;8.18;;
16766;SDS011;8501;49.926;8.404;2023-09-08T06:18:14;11.05;;;8.02;;
16766;SDS011;8501;49.926;8.404;2023-09-08T06:20:46;12.15;;;8.43;;
16766;SDS011;8501;49.926;8.404;2023-09-08T06:23:12;9.88;;;7.78;;
16766;SDS011;8501;49.926;8.404;2023-09-08T06:25:38;10.50;;;8.85;;
16766;SDS011;8501;49.926;8.404;2023-09-08T06:28:03;12.02;;;8.07;;
16766;SDS011;8501;49.926;8.404;2023-09-08T06:30:29;9.30;;;8.30;;
16766;SDS011;8501;49.926;8.404;2023-09-08T06:32:55;11.98;;;8.32;;
16766;SDS011;8501;49.926;8.404;2023-09-08T06:35:20;11.18;;;8.63;;
16766;SDS011;8501;49.926;8.404;2023-09-08T06:37:46;12.07;;;8.05;;
16766;SDS011;8501;49.926;8.404;2023-09-08T06:40:11;10.35;;;8.48;;
16766;SDS011;8501;49.926;8.404;2023-09-08T06:42:37;11.40;;;8.18;;
16766;SDS011;8501;49.926;8.404;2023-09-08T06:45:03;9.43;;;8.02;;
16766;SDS011;8501;49.926;8.404;2023-09-08T06:47:28;10.93;;;8.40;;
16766;SDS011;8501;49.926;8.404;2023-09-08T06:49:54;10.45;;;8.10;;
16766;SDS011;8501;49.926;8.404;2023-09-08T06:52:20;10.18;;;8.20;;
16766;SDS011;8501;49.926;8.404;2023-09-08T06:54:45;12.20;;;8.38;;
16766;SDS011;8501;49.926;8.404;2023-09-08T06:57:11;11.90;;;8.85;;
16766;SDS011;8501;49.926;8.404;2023-09-08T06:59:37;9.95;;;8.48;;
16766;SDS011;8501;49.926;8.404;2023-09-08T07:02:03;9.65;;;7.78;;
16766;SDS011;8501;49.926;8.404;2023-09-08T07:04:29;9.90;;;8.27;;
16766;SDS011;8501;49.926;8.404;2023-09-08T07:06:55;13.02;;;8.93;;
16766;SDS011;8501;49.926;8.404;2023-09-08T07:09:20;9.38;;;7.88;;
16766;SDS011;8501;49.926;8.404;2023-09-08T07:11:46;11.90;;;8.27;;
16766;SDS011;8501;49.926;8.404;2023-09-08T07:14:12;10.10;;;8.23;;
16766;SDS011;8501;49.926;8.404;2023-09-08T07:16:37;8.98;;;7.97;;
16766;SDS011;8501;49.926;8.404;2023-09-08T07:19:03;9.43;;;7.68;;
16766;SDS011;8501;49.926;8.404;2023-09-08T07:21:28;11.50;;;8.27;;
16766;SDS011;8501;49.926;8.404;2023-09-08T07:23:54;9.18;;;7.65;;
16766;SDS011;8501;49.926;8.404;2023-09-08T07:26:19;9.18;;;7.78;;
16766;SDS011;8501;49.926;8.404;2023-09-08T07:28:45;9.35;;;7.85;;
16766;SDS011;8501;49.926;8.404;2023-09-08T07:31:11;11.40;;;8.05;;
16766;SDS011;8501;49.926;8.404;2023-09-08T07:33:37;9.98;;;8.02;;
16766;SDS011;8501;49.926;8.404;2023-09-08T07:36:04;10.15;;;8.02;;
16766;SDS011;8501;49.926;8.404;2023-09-08T07:38:30;9.35;;;8.13;;
16766;SDS011;8501;49.926;8.404;2023-09-08T07:40:56;10.55;;;7.65;;
16766;SDS011;8501;49.926;8.404;2023-09-08T07:43:21;10.85;;;8.02;;
16766;SDS011;8501;49.926;8.404;2023-09-08T07:45:47;10.77;;;8.70;;
16766;SDS011;8501;49.926;8.404;2023-09-08T07:48:12;11.73;;;8.30;;
16766;SDS011;8501;49.926;8.404;2023-09-08T07:50:38;9.00;;;7.75;;
16766;SDS011;8501;49.926;8.404;2023-09-08T07:53:04;10.75;;;7.88;;
16766;SDS011;8501;49.926;8.404;2023-09-08T07:55:29;12.57;;;7.32;;
16766;SDS011;8501;49.926;8.404;2023-09-08T07:57:55;9.45;;;7.35;;
16766;SDS011;8501;49.926;8.404;2023-09-08T08:00:22;9.75;;;7.30;;
16766;SDS011;8501;49.926;8.404;2023-09-08T08:02:49;11.10;;;7.90;;
16766;SDS011;8501;49.926;8.404;2023-09-08T08:05:16;13.32;;;7.78;;
16766;SDS011;8501;49.926;8.404;2023-09-08T08:07:42;9.38;;;8.02;;
16766;SDS011;8501;49.926;8.404;2023-09-08T08:10:09;9.45;;;7.93;;
16766;SDS011;8501;49.926;8.404;2023-09-08T08:12:35;9.35;;;7.38;;
16766;SDS011;8501;49.926;8.404;2023-09-08T08:15:01;9.85;;;7.80;;
16766;SDS011;8501;49.926;8.404;2023-09-08T08:17:26;8.90;;;7.47;;
16766;SDS011;8501;49.926;8.404;2023-09-08T08:19:53;8.80;;;7.38;;
16766;SDS011;8501;49.926;8.404;2023-09-08T08:22:19;10.88;;;7.10;;
16766;SDS011;8501;49.926;8.404;2023-09-08T08:24:45;11.82;;;7.97;;
16766;SDS011;8501;49.926;8.404;2023-09-08T08:27:10;9.82;;;8.38;;
16766;SDS011;8501;49.926;8.404;2023-09-08T08:29:36;8.80;;;7.40;;
16766;SDS011;8501;49.926;8.404;2023-09-08T08:32:01;8.70;;;7.50;;
16766;SDS011;8501;49.926;8.404;2023-09-08T08:34:27;11.27;;;8.10;;
16766;SDS011;8501;49.926;8.404;2023-09-08T08:36:53;9.60;;;8.05;;
16766;SDS011;8501;49.926;8.404;2023-09-08T08:39:19;9.85;;;7.88;;
16766;SDS011;8501;49.926;8.404;2023-09-08T08:41:44;9.48;;;7.72;;
16766;SDS011;8501;49.926;8.404;2023-09-08T08:44:10;9.30;;;7.38;;
16766;SDS011;8501;49.926;8.404;2023-09-08T08:46:36;10.65;;;7.70;;
16766;SDS011;8501;49.926;8.404;2023-09-08T08:49:02;11.63;;;7.80;;
16766;SDS011;8501;49.926;8.404;2023-09-08T08:51:30;8.65;;;7.13;;
16766;SDS011;8501;49.926;8.404;2023-09-08T08:56:24;9.23;;;7.55;;
16766;SDS011;8501;49.926;8.404;2023-09-08T08:58:49;9.20;;;7.50;;
16766;SDS011;8501;49.926;8.404;2023-09-08T09:01:15;9.75;;;7.35;;
16766;SDS011;8501;49.926;8.404;2023-09-08T09:03:48;8.95;;;7.53;;
16766;SDS011;8501;49.926;8.404;2023-09-08T09:06:15;11.52;;;7.55;;
16766;SDS011;8501;49.926;8.404;2023-09-08T09:08:42;9.57;;;7.25;;
16766;SDS011;8501;49.926;8.404;2023-09-08T09:11:09;8.82;;;7.15;;
16766;SDS011;8501;49.926;8.404;2023-09-08T09:13:35;8.50;;;7.18;;
16766;SDS011;8501;49.926;8.404;2023-09-08T09:16:00;10.43;;;7.20;;
16766;SDS011;8501;49.926;8.404;2023-09-08T09:18:28;10.20;;;7.78;;
16766;SDS011;8501;49.926;8.404;2023-09-08T09:20:55;9.77;;;7.78;;
16766;SDS011;8501;49.926;8.404;2023-09-08T09:23:33;8.30;;;7.05;;
16766;SDS011;8501;49.926;8.404;2023-09-08T09:26:01;8.63;;;7.70;;
16766;SDS011;8501;49.926;8.404;2023-09-08T09:28:29;9.88;;;7.53;;
16766;SDS011;8501;49.926;8.404;2023-09-08T09:30:54;8.48;;;7.03;;
16766;SDS011;8501;49.926;8.404;2023-09-08T09:33:20;9.38;;;6.97;;
16766;SDS011;8501;49.926;8.404;2023-09-08T09:38:15;8.32;;;6.97;;
16766;SDS011;8501;49.926;8.404;2023-09-08T09:40:43;8.02;;;7.10;;
16766;SDS011;8501;49.926;8.404;2023-09-08T09:43:09;9.30;;;6.80;;
16766;SDS011;8501;49.926;8.404;2023-09-08T09:45:36;8.18;;;7.35;;
16766;SDS011;8501;49.926;8.404;2023-09-08T09:48:03;9.43;;;7.28;;
16766;SDS011;8501;49.926;8.404;2023-09-08T09:50:33;8.48;;;6.90;;
16766;SDS011;8501;49.926;8.404;2023-09-08T09:53:12;9.70;;;7.50;;
16766;SDS011;8501;49.926;8.404;2023-09-08T09:55:40;8.07;;;7.30;;
16766;SDS011;8501;49.926;8.404;2023-09-08T09:58:07;8.30;;;6.80;;
16766;SDS011;8501;49.926;8.404;2023-09-08T10:00:35;8.35;;;7.28;;
16766;SDS011;8501;49.926;8.404;2023-09-08T10:03:02;9.05;;;7.70;;
16766;SDS011;8501;49.926;8.404;2023-09-08T10:05:29;10.43;;;7.22;;
16766;SDS011;8501;49.926;8.404;2023-09-08T10:07:55;9.50;;;7.35;;
16766;SDS011;8501;49.926;8.404;2023-09-08T10:10:21;8.43;;;7.60;;
16766;SDS011;8501;49.926;8.404;2023-09-08T10:12:57;9.07;;;7.63;;
16766;SDS011;8501;49.926;8.404;2023-09-08T10:15:28;8.52;;;7.22;;
16766;SDS011;8501;49.926;8.404;2023-09-08T10:17:56;9.98;;;7.43;;
16766;SDS011;8501;49.926;8.404;2023-09-08T10:20:25;7.95;;;6.97;;
16766;SDS011;8501;49.926;8.404;2023-09-08T10:22:52;8.35;;;6.50;;
16766;SDS011;8501;49.926;8.404;2023-09-08T10:25:21;8.70;;;7.35;;
16766;SDS011;8501;49.926;8.404;2023-09-08T10:27:50;8.38;;;7.47;;
16766;SDS011;8501;49.926;8.404;2023-09-08T10:30:18;8.38;;;7.45;;
16766;SDS011;8501;49.926;8.404;2023-09-08T10:32:46;10.45;;;7.20;;
16766;SDS011;8501;49.926;8.404;2023-09-08T10:35:14;9.13;;;7.13;;
16766;SDS011;8501;49.926;8.404;2023-09-08T10:37:42;8.68;;;7.78;;
16766;SDS011;8501;49.926;8.404;2023-09-08T10:40:20;8.25;;;7.38;;
16766;SDS011;8501;49.926;8.404;2023-09-08T10:43:06;9.30;;;7.20;;
16766;SDS011;8501;49.926;8.404;2023-09-08T10:45:33;9.25;;;7.25;;
16766;SDS011;8501;49.926;8.404;2023-09-08T10:47:59;7.88;;;7.03;;
16766;SDS011;8501;49.926;8.404;2023-09-08T10:50:32;10.18;;;7.75;;
16766;SDS011;8501;49.926;8.404;2023-09-08T10:53:09;8.70;;;7.32;;
16766;SDS011;8501;49.926;8.404;2023-09-08T10:55:39;7.80;;;6.60;;
16766;SDS011;8501;49.926;8.404;2023-09-08T11:00:58;8.55;;;7.45;;
16766;SDS011;8501;49.926;8.404;2023-09-08T11:06:06;8.00;;;6.90;;
16766;SDS011;8501;49.926;8.404;2023-09-08T11:08:38;9.50;;;6.80;;
16766;SDS011;8501;49.926;8.404;2023-09-08T11:11:06;9.93;;;7.38;;
16766;SDS011;8501;49.926;8.404;2023-09-08T11:13:32;7.50;;;6.70;;
16766;SDS011;8501;49.926;8.404;2023-09-08T11:15:58;7.65;;;6.90;;
16766;SDS011;8501;49.926;8.404;2023-09-08T11:18:27;8.32;;;7.05;;
16766;SDS011;8501;49.926;8.404;2023-09-08T11:20:56;9.07;;;6.80;;
16766;SDS011;8501;49.926;8.404;2023-09-08T11:23:23;7.80;;;7.10;;
16766;SDS011;8501;49.926;8.404;2023-09-08T11:25:49;9.57;;;7.20;;
16766;SDS011;8501;49.926;8.404;2023-09-08T11:28:16;9.07;;;7.22;;
16766;SDS011;8501;49.926;8.404;2023-09-08T11:30:42;8.32;;;7.07;;
16766;SDS011;8501;49.926;8.404;2023-09-08T11:33:17;10.10;;;7.30;;
16766;SDS011;8501;49.926;8.404;2023-09-08T11:35:51;9.02;;;6.93;;
16766;SDS011;8501;49.926;8.404;2023-09-08T11:38:18;8.18;;;7.38;;
16766;SDS011;8501;49.926;8.404;2023-09-08T11:40:49;10.60;;;7.55;;
16766;SDS011;8501;49.926;8.404;2023-09-08T11:43:14;8.88;;;6.95;;
16766;SDS011;8501;49.926;8.404;2023-09-08T11:45:40;8.48;;;7.05;;
16766;SDS011;8501;49.926;8.404;2023-09-08T11:48:09;8.48;;;6.82;;
16766;SDS011;8501;49.926;8.404;2023-09-08T11:50:35;8.48;;;7.30;;
16766;SDS011;8501;49.926;8.404;2023-09-08T11:53:02;7.60;;;6.80;;
16766;SDS011;8501;49.926;8.404;2023-09-08T11:55:31;9.35;;;7.15;;
16766;SDS011;8501;49.926;8.404;2023-09-08T11:57:58;8.35;;;7.15;;
16766;SDS011;8501;49.926;8.404;2023-09-08T12:00:29;7.22;;;6.53;;
16766;SDS011;8501;49.926;8.404;2023-09-08T12:02:55;8.73;;;6.85;;
16766;SDS011;8501;49.926;8.404;2023-09-08T12:05:33;7.78;;;6.95;;
16766;SDS011;8501;49.926;8.404;2023-09-08T12:08:03;8.68;;;7.13;;
16766;SDS011;8501;49.926;8.404;2023-09-08T12:10:38;7.97;;;6.90;;
16766;SDS011;8501;49.926;8.404;2023-09-08T12:13:08;8.98;;;7.07;;
16766;SDS011;8501;49.926;8.404;2023-09-08T12:15:41;7.75;;;6.95;;
16766;SDS011;8501;49.926;8.404;2023-09-08T12:18:12;7.65;;;6.78;;
16766;SDS011;8501;49.926;8.404;2023-09-08T12:20:40;7.68;;;6.88;;
16766;SDS011;8501;49.926;8.404;2023-09-08T12:23:15;7.03;;;6.32;;
16766;SDS011;8501;49.926;8.404;2023-09-08T12:25:46;7.80;;;6.95;;
16766;SDS011;8501;49.926;8.404;2023-09-08T12:28:12;8.68;;;7.05;;
16766;SDS011;8501;49.926;8.404;2023-09-08T12:30:38;7.68;;;6.72;;
16766;SDS011;8501;49.926;8.404;2023-09-08T12:33:04;7.38;;;6.55;;
16766;SDS011;8501;49.926;8.404;2023-09-08T12:35:29;8.20;;;7.15;;
16766;SDS011;8501;49.926;8.404;2023-09-08T12:37:57;7.75;;;6.95;;
16766;SDS011;8501;49.926;8.404;2023-09-08T12:40:32;8.00;;;6.75;;
16766;SDS011;8501;49.926;8.404;2023-09-08T12:42:59;8.23;;;6.65;;
16766;SDS011;8501;49.926;8.404;2023-09-08T12:45:25;7.22;;;6.53;;
16766;SDS011;8501;49.926;8.404;2023-09-08T12:47:51;7.50;;;6.60;;
16766;SDS011;8501;49.926;8.404;2023-09-08T12:50:19;7.30;;;6.60;;
16766;SDS011;8501;49.926;8.404;2023-09-08T12:52:45;7.68;;;6.82;;
16766;SDS011;8501;49.926;8.404;2023-09-08T12:55:11;7.03;;;6.35;;
16766;SDS011;8501;49.926;8.404;2023-09-08T12:57:37;7.38;;;6.45;;
16766;SDS011;8501;49.926;8.404;2023-09-08T13:00:03;7.50;;;6.43;;
16766;SDS011;8501;49.926;8.404;2023-09-08T13:02:29;9.27;;;6.20;;
16766;SDS011;8501;49.926;8.404;2023-09-08T13:04:55;8.73;;;6.30;;
16766;SDS011;8501;49.926;8.404;2023-09-08T13:07:21;8.15;;;6.70;;
16766;SDS011;8501;49.926;8.404;2023-09-08T13:09:47;6.93;;;6.32;;
16766;SDS011;8501;49.926;8.404;2023-09-08T13:12:13;8.95;;;6.75;;
16766;SDS011;8501;49.926;8.404;2023-09-08T13:14:41;6.75;;;6.05;;
16766;SDS011;8501;49.926;8.404;2023-09-08T13:17:08;8.20;;;6.35;;
16766;SDS011;8501;49.926;8.404;2023-09-08T13:19:40;7.72;;;6.40;;
16766;SDS011;8501;49.926;8.404;2023-09-08T13:22:06;10.10;;;6.63;;
16766;SDS011;8501;49.926;8.404;2023-09-08T13:24:32;6.97;;;6.28;;
16766;SDS011;8501;49.926;8.404;2023-09-08T13:26:58;7.50;;;6.28;;
16766;SDS011;8501;49.926;8.404;2023-09-08T13:29:27;8.30;;;6.30;;
16766;SDS011;8501;49.926;8.404;2023-09-08T13:31:53;8.93;;;6.72;;
16766;SDS011;8501;49.926;8.404;2023-09-08T13:34:19;7.10;;;6.35;;
16766;SDS011;8501;49.926;8.404;2023-09-08T13:36:46;7.38;;;5.85;;
16766;SDS011;8501;49.926;8.404;2023-09-08T13:39:11;7.10;;;6.07;;
16766;SDS011;8501;49.926;8.404;2023-09-08T13:41:50;6.65;;;5.97;;
16766;SDS011;8501;49.926;8.404;2023-09-08T13:44:17;7.20;;;6.50;;
16766;SDS011;8501;49.926;8.404;2023-09-08T13:46:44;7.20;;;6.03;;
16766;SDS011;8501;49.926;8.404;2023-09-08T13:49:10;6.97;;;6.22;;
16766;SDS011;8501;49.926;8.404;2023-09-08T13:51:36;6.38;;;5.75;;
16766;SDS011;8501;49.926;8.404;2023-09-08T13:54:02;7.10;;;6.20;;
16766;SDS011;8501;49.926;8.404;2023-09-08T13:56:27;7.05;;;6.18;;
16766;SDS011;8501;49.926;8.404;2023-09-08T13:58:53;6.53;;;5.93;;
16766;SDS011;8501;49.926;8.404;2023-09-08T14:01:18;7.57;;;6.03;;
16766;SDS011;8501;49.926;8.404;2023-09-08T14:03:44;8.10;;;6.38;;
16766;SDS011;8501;49.926;8.404;2023-09-08T14:06:09;7.18;;;6.03;;
16766;SDS011;8501;49.926;8.404;2023-09-08T14:08:35;9.10;;;6.45;;
16766;SDS011;8501;49.926;8.404;2023-09-08T14:11:00;7.72;;;5.78;;
16766;SDS011;8501;49.926;8.404;2023-09-08T14:13:26;6.30;;;5.60;;
16766;SDS011;8501;49.926;8.404;2023-09-08T14:15:52;8.60;;;5.57;;
16766;SDS011;8501;49.926;8.404;2023-09-08T14:18:19;6.40;;;5.80;;
16766;SDS011;8501;49.926;8.404;2023-09-08T14:20:44;8.52;;;6.20;;
16766;SDS011;8501;49.926;8.404;2023-09-08T14:23:10;7.07;;;5.70;;
16766;SDS011;8501;49.926;8.404;2023-09-08T14:25:35;6.20;;;5.70;;
16766;SDS011;8501;49.926;8.404;2023-09-08T14:28:01;8.27;;;5.90;;
16766;SDS011;8501;49.926;8.404;2023-09-08T14:30:28;8.50;;;6.10;;
16766;SDS011;8501;49.926;8.404;2023-09-08T14:32:54;6.65;;;6.05;;
16766;SDS011;8501;49.926;8.404;2023-09-08T14:35:19;6.18;;;5.57;;
16766;SDS011;8501;49.926;8.404;2023-09-08T14:37:48;8.77;;;6.50;;
16766;SDS011;8501;49.926;8.404;2023-09-08T14:40:14;6.18;;;5.57;;
16766;SDS011;8501;49.926;8.404;2023-09-08T14:42:40;6.10;;;5.60;;
16766;SDS011;8501;49.926;8.404;2023-09-08T14:45:06;6.50;;;5.90;;
16766;SDS011;8501;49.926;8.404;2023-09-08T14:47:32;7.13;;;5.75;;
16766;SDS011;8501;49.926;8.404;2023-09-08T14:49:57;6.55;;;5.85;;
16766;SDS011;8501;49.926;8.404;2023-09-08T14:52:23;6.07;;;5.47;;
16766;SDS011;8501;49.926;8.404;2023-09-08T14:54:49;6.88;;;5.57;;
16766;SDS011;8501;49.926;8.404;2023-09-08T14:57:15;7.53;;;5.82;;
16766;SDS011;8501;49.926;8.404;2023-09-08T14:59:43;7.13;;;6.00;;
16766;SDS011;8501;49.926;8.404;2023-09-08T15:02:09;6.40;;;5.55;;
16766;SDS011;8501;49.926;8.404;2023-09-08T15:04:34;6.65;;;5.68;;
16766;SDS011;8501;49.926;8.404;2023-09-08T15:07:00;5.97;;;5.15;;
16766;SDS011;8501;49.926;8.404;2023-09-08T15:09:25;5.82;;;5.00;;